createdAt,value
2018-01-23T00:01:24.059Z,6.90
2018-01-23T00:03:51.469Z,6.90
2018-01-23T00:06:18.906Z,6.90
2018-01-23T00:08:46.449Z,7.00
2018-01-23T00:11:13.886Z,6.90
2018-01-23T00:13:41.293Z,6.90
2018-01-23T00:16:08.816Z,6.90
2018-01-23T00:18:36.276Z,6.90
2018-01-23T00:21:03.712Z,6.90
2018-01-23T00:23:31.192Z,6.90
2018-01-23T00:25:58.652Z,6.90
2018-01-23T00:28:26.419Z,6.80
2018-01-23T00:30:53.849Z,6.80
2018-01-23T00:33:21.269Z,6.80
2018-01-23T00:35:48.701Z,6.80
2018-01-23T00:38:16.248Z,6.80
2018-01-23T00:40:43.676Z,6.80
2018-01-23T00:43:11.170Z,6.80
2018-01-23T00:45:38.930Z,6.80
2018-01-23T00:48:06.384Z,6.80
2018-01-23T00:50:33.831Z,6.80
2018-01-23T00:53:01.258Z,6.80
2018-01-23T00:55:29.440Z,6.80
2018-01-23T00:57:57.145Z,6.70
2018-01-23T01:00:24.601Z,6.80
2018-01-23T01:02:52.028Z,6.80
2018-01-23T01:05:19.440Z,6.80
2018-01-23T01:07:46.865Z,6.80
2018-01-23T01:10:14.434Z,6.80
2018-01-23T01:12:41.865Z,6.80
2018-01-23T01:15:09.350Z,6.80
2018-01-23T01:17:36.985Z,6.80
2018-01-23T01:20:04.473Z,6.80
2018-01-23T01:22:31.900Z,6.80
2018-01-23T01:24:59.388Z,6.80
2018-01-23T01:27:26.817Z,6.80
2018-01-23T01:29:54.396Z,6.70
2018-01-23T01:32:21.833Z,6.80
2018-01-23T01:34:49.259Z,6.80
2018-01-23T01:37:16.688Z,6.80
2018-01-23T01:39:44.109Z,6.80
2018-01-23T01:42:11.693Z,6.70
2018-01-23T01:44:39.457Z,6.70
2018-01-23T01:47:06.893Z,6.70
2018-01-23T01:49:34.316Z,6.70
2018-01-23T01:52:01.754Z,6.70
2018-01-23T01:54:29.178Z,6.70
2018-01-23T01:56:56.632Z,6.70
2018-01-23T01:59:24.107Z,6.60
2018-01-23T02:01:51.551Z,6.70
2018-01-23T02:04:18.969Z,6.70
2018-01-23T02:06:47.161Z,6.70
2018-01-23T02:09:14.652Z,6.70
2018-01-23T02:11:42.097Z,6.70
2018-01-23T02:14:09.515Z,6.80
2018-01-23T02:16:36.945Z,6.80
2018-01-23T02:19:04.381Z,6.80
2018-01-23T02:21:31.841Z,6.80
2018-01-23T02:23:59.270Z,6.80
2018-01-23T02:26:26.725Z,6.80
2018-01-23T02:28:54.182Z,6.80
2018-01-23T02:31:21.604Z,6.80
2018-01-23T02:33:49.134Z,6.80
2018-01-23T02:36:16.557Z,6.80
2018-01-23T02:38:43.998Z,6.80
2018-01-23T02:41:12.390Z,6.70
2018-01-23T02:43:39.831Z,6.70
2018-01-23T02:46:08.017Z,6.70
2018-01-23T02:48:35.517Z,6.70
2018-01-23T02:51:02.940Z,6.70
2018-01-23T02:53:30.373Z,6.70
2018-01-23T02:55:57.798Z,6.70
2018-01-23T02:58:25.345Z,6.70
2018-01-23T03:00:52.769Z,6.70
2018-01-23T03:03:20.268Z,6.70
2018-01-23T03:05:47.907Z,6.70
2018-01-23T03:08:15.406Z,6.70
2018-01-23T03:10:42.941Z,6.70
2018-01-23T03:13:10.590Z,6.70
2018-01-23T03:15:38.147Z,6.70
2018-01-23T03:18:05.625Z,6.70
2018-01-23T03:20:33.076Z,6.70
2018-01-23T03:23:00.517Z,6.70
2018-01-23T03:25:28.001Z,6.70
2018-01-23T03:27:55.761Z,6.80
2018-01-23T03:30:23.191Z,6.80
2018-01-23T03:32:50.629Z,6.80
2018-01-23T03:35:18.050Z,6.80
2018-01-23T03:37:45.493Z,6.80
2018-01-23T03:40:12.949Z,6.70
2018-01-23T03:42:40.699Z,6.70
2018-01-23T03:45:08.105Z,6.70
2018-01-23T03:47:35.525Z,6.70
2018-01-23T03:50:03.191Z,6.70
2018-01-23T03:52:30.825Z,6.70
2018-01-23T03:54:58.314Z,6.70
2018-01-23T03:57:25.875Z,6.70
2018-01-23T03:59:53.637Z,6.70
2018-01-23T04:02:21.094Z,6.70
2018-01-23T04:04:48.857Z,6.70
2018-01-23T04:07:16.629Z,6.70
2018-01-23T04:09:44.074Z,6.70
2018-01-23T04:12:11.498Z,6.60
2018-01-23T04:14:38.994Z,6.60
2018-01-23T04:17:06.425Z,6.60
2018-01-23T04:19:33.858Z,6.60
2018-01-23T04:22:01.371Z,6.60
2018-01-23T04:24:29.016Z,6.60
2018-01-23T04:26:56.598Z,6.60
2018-01-23T04:29:24.038Z,6.60
2018-01-23T04:31:51.509Z,6.60
2018-01-23T04:34:18.950Z,6.60
2018-01-23T04:36:46.374Z,6.60
2018-01-23T04:39:13.814Z,6.60
2018-01-23T04:41:41.342Z,6.70
2018-01-23T04:44:08.782Z,6.70
2018-01-23T04:46:36.210Z,6.60
2018-01-23T04:49:03.717Z,6.60
2018-01-23T04:51:31.146Z,6.60
2018-01-23T04:53:58.640Z,6.70
2018-01-23T04:56:26.070Z,6.70
2018-01-23T04:58:53.505Z,6.70
2018-01-23T05:01:21.010Z,6.60
2018-01-23T05:03:48.667Z,6.60
2018-01-23T05:06:16.099Z,6.60
2018-01-23T05:08:43.586Z,6.70
2018-01-23T05:11:11.017Z,6.60
2018-01-23T05:13:38.605Z,6.70
2018-01-23T05:16:06.238Z,6.60
2018-01-23T05:18:33.662Z,6.60
2018-01-23T05:21:01.283Z,6.60
2018-01-23T05:23:29.657Z,6.70
2018-01-23T05:25:57.126Z,6.80
2018-01-23T05:28:24.753Z,6.70
2018-01-23T05:30:52.193Z,6.70
2018-01-23T05:33:20.381Z,6.60
2018-01-23T05:35:47.822Z,6.60
2018-01-23T05:38:15.334Z,6.70
2018-01-23T05:40:42.979Z,6.60
2018-01-23T05:43:10.455Z,6.60
2018-01-23T05:45:37.899Z,6.70
2018-01-23T05:48:05.371Z,6.70
2018-01-23T05:50:32.926Z,6.80
2018-01-23T05:53:00.689Z,6.80
2018-01-23T05:55:28.154Z,6.70
2018-01-23T05:57:55.613Z,6.70
2018-01-23T06:00:23.073Z,6.70
2018-01-23T06:02:50.526Z,6.70
2018-01-23T06:05:17.974Z,6.80
2018-01-23T06:07:45.398Z,6.80
2018-01-23T06:10:12.897Z,6.80
2018-01-23T06:12:40.318Z,6.70
2018-01-23T06:15:07.754Z,6.70
2018-01-23T06:17:35.178Z,6.70
2018-01-23T06:20:02.613Z,6.80
2018-01-23T06:22:30.189Z,6.80
2018-01-23T06:24:57.830Z,6.70
2018-01-23T06:27:25.402Z,6.70
2018-01-23T06:29:52.870Z,6.70
2018-01-23T06:32:20.293Z,6.70
2018-01-23T06:34:47.717Z,6.70
2018-01-23T06:37:15.145Z,6.60
2018-01-23T06:39:42.701Z,6.60
2018-01-23T06:42:10.458Z,6.70
2018-01-23T06:44:37.885Z,6.70
2018-01-23T06:47:05.382Z,6.80
2018-01-23T06:49:32.814Z,6.80
2018-01-23T06:52:00.297Z,6.80
2018-01-23T06:54:27.757Z,6.80
2018-01-23T06:56:55.213Z,6.80
2018-01-23T06:59:22.673Z,6.80
2018-01-23T07:01:50.111Z,6.90
2018-01-23T07:04:17.590Z,6.90
2018-01-23T07:06:45.046Z,6.90
2018-01-23T07:09:12.682Z,7.00
2018-01-23T07:11:40.270Z,6.90
2018-01-23T07:14:07.893Z,6.90
2018-01-23T07:16:35.368Z,6.80
2018-01-23T07:19:02.845Z,6.80
2018-01-23T07:21:30.412Z,6.80
2018-01-23T07:23:58.310Z,6.70
2018-01-23T07:26:25.745Z,6.80
2018-01-23T07:28:53.293Z,6.80
2018-01-23T07:31:20.849Z,6.80
2018-01-23T07:33:48.277Z,6.70
2018-01-23T07:36:15.709Z,6.80
2018-01-23T07:38:43.216Z,6.80
2018-01-23T07:41:10.686Z,6.80
2018-01-23T07:43:38.313Z,6.80
2018-01-23T07:46:05.822Z,6.80
2018-01-23T07:48:33.266Z,6.80
2018-01-23T07:51:01.111Z,6.80
2018-01-23T07:53:28.530Z,6.80
2018-01-23T07:55:56.041Z,6.80
2018-01-23T07:58:23.502Z,6.80
2018-01-23T08:00:51.133Z,6.80
2018-01-23T08:03:18.608Z,6.80
2018-01-23T08:05:46.177Z,6.90
2018-01-23T08:08:13.645Z,6.90
2018-01-23T08:10:41.102Z,6.90
2018-01-23T08:13:08.526Z,6.80
2018-01-23T08:15:35.949Z,6.90
2018-01-23T08:18:03.376Z,6.90
2018-01-23T08:20:30.797Z,6.80
2018-01-23T08:22:58.306Z,6.90
2018-01-23T08:25:25.750Z,6.90
2018-01-23T08:27:53.185Z,6.90
2018-01-23T08:30:20.665Z,6.90
2018-01-23T08:32:48.221Z,6.90
2018-01-23T08:35:15.852Z,6.90
2018-01-23T08:37:43.290Z,6.90
2018-01-23T08:40:11.686Z,7.00
2018-01-23T08:42:39.205Z,6.90
2018-01-23T08:45:06.636Z,7.00
2018-01-23T08:47:34.075Z,7.00
2018-01-23T08:50:01.519Z,7.00
2018-01-23T08:52:29.101Z,7.10
2018-01-23T08:54:56.530Z,7.10
2018-01-23T08:57:24.017Z,7.10
2018-01-23T08:59:51.450Z,7.20
2018-01-23T09:02:18.888Z,7.20
2018-01-23T09:04:46.310Z,7.20
2018-01-23T09:07:13.777Z,7.30
2018-01-23T09:09:41.218Z,7.30
2018-01-23T09:12:08.685Z,7.40
2018-01-23T09:14:36.225Z,7.40
2018-01-23T09:17:03.881Z,7.40
2018-01-23T09:19:31.354Z,7.50
2018-01-23T09:21:58.910Z,7.60
2018-01-23T09:24:26.370Z,7.60
2018-01-23T09:26:53.789Z,7.70
2018-01-23T09:29:21.218Z,7.80
2018-01-23T09:31:49.630Z,7.80
2018-01-23T09:34:17.057Z,7.70
2018-01-23T09:36:44.573Z,7.80
2018-01-23T09:39:12.033Z,7.80
2018-01-23T09:41:39.458Z,7.90
2018-01-23T09:44:06.886Z,7.90
2018-01-23T09:46:34.331Z,7.90
2018-01-23T09:49:01.866Z,7.90
2018-01-23T09:51:29.289Z,7.90
2018-01-23T09:53:56.721Z,8.00
2018-01-23T09:56:24.146Z,7.90
2018-01-23T09:58:51.615Z,7.90
2018-01-23T10:01:19.061Z,7.90
2018-01-23T10:03:46.623Z,7.90
2018-01-23T10:06:14.249Z,7.90
2018-01-23T10:08:41.725Z,7.90
2018-01-23T10:11:09.201Z,7.90
2018-01-23T10:13:36.641Z,8.00
2018-01-23T10:16:04.147Z,8.10
2018-01-23T10:18:31.582Z,8.10
2018-01-23T10:20:59.125Z,8.10
2018-01-23T10:23:26.558Z,8.10
2018-01-23T10:25:53.981Z,8.10
2018-01-23T10:28:22.199Z,8.10
2018-01-23T10:30:49.614Z,8.10
2018-01-23T10:33:18.878Z,8.10
2018-01-23T10:35:46.511Z,8.10
2018-01-23T10:38:14.093Z,8.10
2018-01-23T10:40:41.861Z,8.10
2018-01-23T10:43:09.511Z,8.20
2018-01-23T10:45:37.090Z,8.30
2018-01-23T10:48:04.733Z,8.40
2018-01-23T10:50:32.246Z,8.50
2018-01-23T10:52:59.666Z,8.50
2018-01-23T10:55:27.125Z,8.60
2018-01-23T10:57:54.582Z,8.60
2018-01-23T11:00:22.451Z,8.60
2018-01-23T11:02:50.209Z,8.60
2018-01-23T11:05:17.634Z,8.70
2018-01-23T11:07:45.125Z,8.70
2018-01-23T11:10:12.586Z,8.80
2018-01-23T11:12:40.014Z,8.70
2018-01-23T11:15:07.505Z,8.60
2018-01-23T11:17:35.137Z,8.60
2018-01-23T11:20:02.722Z,8.60
2018-01-23T11:22:30.188Z,8.70
2018-01-23T11:24:57.635Z,8.70
2018-01-23T11:27:25.103Z,8.80
2018-01-23T11:29:52.539Z,8.80
2018-01-23T11:32:20.014Z,8.90
2018-01-23T11:34:47.445Z,8.80
2018-01-23T11:37:14.929Z,8.80
2018-01-23T11:39:42.578Z,8.80
2018-01-23T11:42:10.054Z,8.90
2018-01-23T11:44:37.551Z,8.90
2018-01-23T11:47:04.975Z,8.90
2018-01-23T11:49:32.409Z,8.80
2018-01-23T11:51:59.985Z,8.70
2018-01-23T11:54:27.446Z,8.70
2018-01-23T11:56:55.206Z,8.70
2018-01-23T11:59:22.639Z,8.70
2018-01-23T12:01:50.062Z,8.80
2018-01-23T12:04:17.582Z,8.80
2018-01-23T12:06:45.341Z,8.80
2018-01-23T12:09:12.989Z,8.90
2018-01-23T12:11:40.432Z,9.00
2018-01-23T12:14:07.985Z,9.10
2018-01-23T12:16:35.401Z,9.20
2018-01-23T12:19:02.946Z,9.20
2018-01-23T12:21:30.397Z,9.30
2018-01-23T12:23:57.826Z,9.30
2018-01-23T12:26:25.250Z,9.30
2018-01-23T12:28:52.678Z,9.40
2018-01-23T12:31:20.161Z,9.40
2018-01-23T12:33:47.691Z,9.40
2018-01-23T12:36:15.110Z,9.40
2018-01-23T12:38:42.524Z,9.40
2018-01-23T12:41:09.966Z,9.50
2018-01-23T12:43:37.426Z,9.50
2018-01-23T12:46:05.166Z,9.50
2018-01-23T12:48:33.357Z,9.30
2018-01-23T12:51:00.816Z,9.30
2018-01-23T12:53:28.236Z,9.30
2018-01-23T12:55:55.735Z,9.30
2018-01-23T12:58:23.345Z,9.40
2018-01-23T13:00:51.862Z,9.40
2018-01-23T13:03:19.334Z,9.40
2018-01-23T13:05:46.778Z,9.40
2018-01-23T13:08:14.198Z,9.40
2018-01-23T13:10:41.629Z,9.50
2018-01-23T13:13:09.171Z,9.50
2018-01-23T13:15:36.808Z,9.60
2018-01-23T13:18:04.229Z,9.70
2018-01-23T13:20:32.432Z,9.90
2018-01-23T13:22:59.858Z,9.90
2018-01-23T13:25:28.057Z,9.90
2018-01-23T13:27:55.566Z,9.90
2018-01-23T13:30:23.161Z,9.90
2018-01-23T13:32:50.675Z,9.90
2018-01-23T13:35:18.343Z,9.90
2018-01-23T13:37:45.892Z,9.80
2018-01-23T13:40:13.336Z,9.80
2018-01-23T13:42:40.755Z,9.80
2018-01-23T13:45:08.181Z,9.90
2018-01-23T13:47:35.607Z,9.80
2018-01-23T13:50:03.137Z,9.90
2018-01-23T13:52:30.641Z,9.80
2018-01-23T13:54:58.410Z,9.80
2018-01-23T13:57:25.951Z,9.80
2018-01-23T13:59:53.532Z,9.80
2018-01-23T14:02:21.049Z,9.80
2018-01-23T14:04:48.478Z,9.80
2018-01-23T14:07:16.928Z,9.80
2018-01-23T14:09:44.349Z,9.80
2018-01-23T14:12:11.782Z,9.80
2018-01-23T14:14:39.969Z,9.80
2018-01-23T14:17:07.410Z,9.70
2018-01-23T14:19:35.602Z,9.70
2018-01-23T14:22:04.013Z,9.70
2018-01-23T14:24:31.586Z,9.70
2018-01-23T14:26:59.018Z,9.70
2018-01-23T14:29:26.502Z,9.70
2018-01-23T14:31:53.942Z,9.70
2018-01-23T14:34:21.366Z,9.70
2018-01-23T14:36:48.798Z,9.80
2018-01-23T14:39:16.216Z,9.80
2018-01-23T14:41:43.706Z,9.80
2018-01-23T14:44:11.245Z,9.80
2018-01-23T14:46:38.894Z,9.80
2018-01-23T14:49:06.344Z,9.80
2018-01-23T14:51:33.878Z,9.80
2018-01-23T14:54:01.301Z,9.80
2018-01-23T14:56:28.851Z,9.70
2018-01-23T14:58:56.478Z,9.70
2018-01-23T15:01:23.916Z,9.60
2018-01-23T15:03:52.137Z,9.60
2018-01-23T15:06:19.909Z,9.60
2018-01-23T15:08:47.325Z,9.60
2018-01-23T15:11:15.060Z,9.60
2018-01-23T15:13:42.486Z,9.60
2018-01-23T15:16:10.046Z,9.60
2018-01-23T15:18:37.739Z,9.60
2018-01-23T15:21:05.173Z,9.60
2018-01-23T15:23:32.608Z,9.50
2018-01-23T15:26:00.036Z,9.50
2018-01-23T15:28:28.213Z,9.30
2018-01-23T15:30:56.405Z,9.20
2018-01-23T15:33:23.957Z,9.20
2018-01-23T15:35:51.381Z,9.20
2018-01-23T15:38:19.005Z,9.20
2018-01-23T15:40:46.468Z,9.10
2018-01-23T15:43:13.925Z,9.10
2018-01-23T15:45:41.377Z,9.10
2018-01-23T15:48:08.843Z,9.10
2018-01-23T15:50:36.256Z,9.10
2018-01-23T15:53:03.694Z,9.10
2018-01-23T15:55:31.209Z,9.20
2018-01-23T15:57:58.677Z,9.10
2018-01-23T16:00:26.306Z,9.10
2018-01-23T16:02:53.898Z,9.10
2018-01-23T16:05:21.321Z,9.10
2018-01-23T16:07:48.758Z,9.20
2018-01-23T16:10:16.181Z,9.10
2018-01-23T16:12:43.633Z,9.10
2018-01-23T16:15:11.185Z,9.20
2018-01-23T16:17:38.617Z,9.20
2018-01-23T16:20:06.107Z,9.10
2018-01-23T16:22:33.746Z,9.10
2018-01-23T16:25:01.223Z,9.00
2018-01-23T16:27:28.666Z,9.00
2018-01-23T16:29:56.238Z,9.00
2018-01-23T16:32:23.666Z,9.00
2018-01-23T16:34:51.087Z,9.00
2018-01-23T16:37:18.513Z,9.00
2018-01-23T16:39:45.978Z,9.00
2018-01-23T16:42:13.433Z,9.00
2018-01-23T16:44:40.866Z,9.00
2018-01-23T16:47:08.454Z,8.90
2018-01-23T16:49:35.902Z,9.00
2018-01-23T16:52:03.361Z,9.00
2018-01-23T16:54:31.227Z,8.90
2018-01-23T16:56:58.845Z,9.00
2018-01-23T16:59:26.323Z,9.00
2018-01-23T17:01:53.809Z,9.00
2018-01-23T17:04:21.246Z,9.00
2018-01-23T17:06:48.717Z,9.00
2018-01-23T17:09:16.182Z,9.10
2018-01-23T17:11:43.606Z,9.10
2018-01-23T17:14:11.046Z,9.10
2018-01-23T17:16:38.570Z,9.10
2018-01-23T17:19:05.983Z,9.20
2018-01-23T17:21:33.406Z,9.20
2018-01-23T17:24:00.893Z,9.20
2018-01-23T17:26:28.319Z,9.30
2018-01-23T17:28:55.848Z,9.30
2018-01-23T17:31:23.306Z,9.30
2018-01-23T17:33:50.736Z,9.30
2018-01-23T17:36:18.208Z,9.30
2018-01-23T17:38:45.668Z,9.30
2018-01-23T17:41:13.092Z,9.30
2018-01-23T17:43:40.575Z,9.40
2018-01-23T17:46:08.049Z,9.40
2018-01-23T17:48:35.501Z,9.40
2018-01-23T17:51:03.463Z,9.40
2018-01-23T17:53:30.950Z,9.30
2018-01-23T17:55:58.373Z,9.30
2018-01-23T17:58:25.861Z,9.30
2018-01-23T18:00:53.310Z,9.30
2018-01-23T18:03:20.760Z,9.30
2018-01-23T18:05:48.187Z,9.30
2018-01-23T18:08:15.785Z,9.20
2018-01-23T18:10:43.409Z,9.20
2018-01-23T18:13:10.906Z,9.30
2018-01-23T18:15:38.467Z,9.30
2018-01-23T18:18:06.097Z,9.20
2018-01-23T18:20:33.618Z,9.20
2018-01-23T18:23:01.146Z,9.20
2018-01-23T18:25:28.597Z,9.20
2018-01-23T18:27:56.006Z,9.20
2018-01-23T18:30:23.517Z,9.20
2018-01-23T18:32:51.136Z,9.20
2018-01-23T18:35:19.563Z,9.20
2018-01-23T18:37:46.986Z,9.20
2018-01-23T18:40:14.573Z,9.20
2018-01-23T18:42:41.994Z,9.20
2018-01-23T18:45:09.493Z,9.20
2018-01-23T18:47:36.918Z,9.10
2018-01-23T18:50:04.349Z,9.10
2018-01-23T18:52:31.768Z,9.10
2018-01-23T18:54:59.332Z,9.00
2018-01-23T18:57:26.853Z,9.00
2018-01-23T18:59:54.430Z,8.90
2018-01-23T19:02:21.915Z,8.80
2018-01-23T19:04:49.471Z,8.70
2018-01-23T19:07:16.933Z,8.70
2018-01-23T19:09:44.684Z,8.70
2018-01-23T19:12:12.502Z,8.60
2018-01-23T19:14:39.943Z,8.60
2018-01-23T19:17:07.356Z,8.50
2018-01-23T19:19:34.803Z,8.50
2018-01-23T19:22:02.217Z,8.50
2018-01-23T19:24:29.653Z,8.50
2018-01-23T19:26:57.101Z,8.40
2018-01-23T19:29:24.652Z,8.40
2018-01-23T19:31:52.073Z,8.40
2018-01-23T19:34:19.589Z,8.40
2018-01-23T19:36:47.418Z,8.40
2018-01-23T19:39:15.107Z,8.40
2018-01-23T19:41:42.565Z,8.40
2018-01-23T19:44:10.012Z,8.40
2018-01-23T19:46:37.473Z,8.40
2018-01-23T19:49:04.897Z,8.40
2018-01-23T19:51:32.398Z,8.40
2018-01-23T19:53:59.821Z,8.30
2018-01-23T19:56:27.254Z,8.30
2018-01-23T19:58:54.680Z,8.30
2018-01-23T20:01:22.142Z,8.30
2018-01-23T20:03:49.676Z,8.40
2018-01-23T20:06:17.146Z,8.40
2018-01-23T20:08:45.517Z,8.30
2018-01-23T20:11:12.982Z,8.30
2018-01-23T20:13:40.741Z,8.30
2018-01-23T20:16:08.188Z,8.30
2018-01-23T20:18:35.605Z,8.30
2018-01-23T20:21:03.118Z,8.30
2018-01-23T20:23:30.533Z,8.30
2018-01-23T20:25:58.035Z,8.30
2018-01-23T20:28:25.456Z,8.30
2018-01-23T20:30:52.954Z,8.30
2018-01-23T20:33:20.378Z,8.30
2018-01-23T20:35:47.809Z,8.30
2018-01-23T20:38:15.320Z,8.30
2018-01-23T20:40:42.749Z,8.30
2018-01-23T20:43:10.169Z,8.30
2018-01-23T20:45:37.609Z,8.40
2018-01-23T20:48:05.034Z,8.40
2018-01-23T20:50:32.457Z,8.40
2018-01-23T20:53:00.690Z,8.40
2018-01-23T20:55:28.313Z,8.40
2018-01-23T20:57:55.910Z,8.40
2018-01-23T21:00:23.533Z,8.40
2018-01-23T21:02:51.051Z,8.50
2018-01-23T21:05:18.593Z,8.50
2018-01-23T21:07:46.444Z,8.40
2018-01-23T21:10:14.119Z,8.50
2018-01-23T21:12:41.542Z,8.50
2018-01-23T21:15:09.229Z,8.50
2018-01-23T21:17:36.797Z,8.50
2018-01-23T21:20:04.259Z,8.50
2018-01-23T21:22:31.908Z,8.50
2018-01-23T21:24:59.329Z,8.50
2018-01-23T21:27:27.530Z,8.60
2018-01-23T21:29:54.953Z,8.60
2018-01-23T21:32:23.393Z,8.70
2018-01-23T21:34:50.817Z,8.60
2018-01-23T21:37:18.249Z,8.70
2018-01-23T21:39:45.772Z,8.70
2018-01-23T21:42:13.206Z,8.70
2018-01-23T21:44:40.621Z,8.60
2018-01-23T21:47:08.142Z,8.70
2018-01-23T21:49:35.790Z,8.70
2018-01-23T21:52:03.361Z,8.70
2018-01-23T21:54:30.794Z,8.70
2018-01-23T21:56:58.278Z,8.80
2018-01-23T21:59:25.737Z,8.90
2018-01-23T22:01:53.380Z,8.90
2018-01-23T22:04:20.797Z,8.90
2018-01-23T22:06:48.329Z,8.90
2018-01-23T22:09:15.873Z,9.00
2018-01-23T22:11:43.301Z,9.00
2018-01-23T22:14:11.613Z,9.10
2018-01-23T22:16:39.081Z,9.10
2018-01-23T22:19:06.684Z,9.10
2018-01-23T22:21:34.049Z,9.20
2018-01-23T22:24:01.542Z,9.20
2018-01-23T22:26:29.005Z,9.20
2018-01-23T22:28:56.421Z,9.30
2018-01-23T22:31:23.853Z,9.30
2018-01-23T22:33:51.278Z,9.30
2018-01-23T22:36:18.738Z,9.30
2018-01-23T22:38:46.189Z,9.40
2018-01-23T22:41:13.684Z,9.50
2018-01-23T22:43:41.984Z,9.60
2018-01-23T22:46:10.514Z,9.60
2018-01-23T22:48:37.954Z,9.60
2018-01-23T22:51:05.497Z,9.70
2018-01-23T22:53:32.928Z,9.70
2018-01-23T22:56:01.199Z,9.70
2018-01-23T22:58:28.634Z,9.70
2018-01-23T23:00:56.079Z,9.70
2018-01-23T23:03:23.550Z,9.70
2018-01-23T23:05:51.086Z,9.70
2018-01-23T23:08:18.554Z,9.70
2018-01-23T23:10:46.010Z,9.70
2018-01-23T23:13:13.454Z,9.70
2018-01-23T23:15:40.873Z,9.70
2018-01-23T23:18:08.387Z,9.70
2018-01-23T23:20:36.152Z,9.60
2018-01-23T23:23:03.784Z,9.70
2018-01-23T23:25:31.374Z,9.70
2018-01-23T23:27:59.014Z,9.60
2018-01-23T23:30:26.432Z,9.60
2018-01-23T23:32:54.679Z,9.70
2018-01-23T23:35:22.126Z,9.70
2018-01-23T23:37:49.568Z,9.70
2018-01-23T23:40:17.050Z,9.70
2018-01-23T23:42:44.801Z,9.80
2018-01-23T23:45:12.267Z,9.80
2018-01-23T23:47:39.697Z,9.90
2018-01-23T23:50:07.186Z,9.90
2018-01-23T23:52:34.637Z,10.00
2018-01-23T23:55:02.098Z,9.90
2018-01-23T23:57:29.535Z,10.00
2018-01-23T23:59:57.005Z,10.00
